sensor_id;sensor_type;location;lat;lon;timestamp;P1;durP1;ratioP1;P2;durP2;ratioP2
15878;SDS011;61999;51.514;14.614;2023-08-20T00:01:14;13.70;;;12.60;;
15878;SDS011;61999;51.514;14.614;2023-08-20T00:03:51;14.13;;;13.03;;
15878;SDS011;61999;51.514;14.614;2023-08-20T00:06:23;13.23;;;12.23;;
15878;SDS011;61999;51.514;14.614;2023-08-20T00:08:52;12.97;;;11.97;;
15878;SDS011;61999;51.514;14.614;2023-08-20T00:11:20;13.40;;;12.20;;
15878;SDS011;61999;51.514;14.614;2023-08-20T00:13:48;13.50;;;12.47;;
15878;SDS011;61999;51.514;14.614;2023-08-20T00:16:17;13.37;;;12.37;;
15878;SDS011;61999;51.514;14.614;2023-08-20T00:18:46;13.70;;;12.60;;
15878;SDS011;61999;51.514;14.614;2023-08-20T00:21:15;13.80;;;12.73;;
15878;SDS011;61999;51.514;14.614;2023-08-20T00:23:45;14.50;;;13.30;;
15878;SDS011;61999;51.514;14.614;2023-08-20T00:26:14;14.40;;;13.17;;
15878;SDS011;61999;51.514;14.614;2023-08-20T00:28:43;14.20;;;12.90;;
15878;SDS011;61999;51.514;14.614;2023-08-20T00:31:11;14.63;;;13.27;;
15878;SDS011;61999;51.514;14.614;2023-08-20T00:33:39;15.10;;;13.80;;
15878;SDS011;61999;51.514;14.614;2023-08-20T00:36:11;13.93;;;12.73;;
15878;SDS011;61999;51.514;14.614;2023-08-20T00:38:39;13.67;;;12.47;;
15878;SDS011;61999;51.514;14.614;2023-08-20T00:41:08;14.13;;;13.03;;
15878;SDS011;61999;51.514;14.614;2023-08-20T00:43:36;13.40;;;12.30;;
15878;SDS011;61999;51.514;14.614;2023-08-20T00:46:04;13.60;;;12.30;;
15878;SDS011;61999;51.514;14.614;2023-08-20T00:48:33;13.10;;;12.03;;
15878;SDS011;61999;51.514;14.614;2023-08-20T00:51:02;13.57;;;12.47;;
15878;SDS011;61999;51.514;14.614;2023-08-20T00:53:30;13.80;;;12.60;;
15878;SDS011;61999;51.514;14.614;2023-08-20T00:55:59;12.73;;;11.63;;
15878;SDS011;61999;51.514;14.614;2023-08-20T00:58:29;12.97;;;11.77;;
15878;SDS011;61999;51.514;14.614;2023-08-20T01:00:57;13.70;;;12.63;;
15878;SDS011;61999;51.514;14.614;2023-08-20T01:03:25;12.97;;;11.97;;
15878;SDS011;61999;51.514;14.614;2023-08-20T01:05:57;14.50;;;13.20;;
15878;SDS011;61999;51.514;14.614;2023-08-20T01:08:40;13.13;;;12.13;;
15878;SDS011;61999;51.514;14.614;2023-08-20T01:11:10;14.23;;;13.03;;
15878;SDS011;61999;51.514;14.614;2023-08-20T01:13:47;13.50;;;12.40;;
15878;SDS011;61999;51.514;14.614;2023-08-20T01:16:15;12.83;;;11.83;;
15878;SDS011;61999;51.514;14.614;2023-08-20T01:18:43;12.87;;;11.83;;
15878;SDS011;61999;51.514;14.614;2023-08-20T01:21:24;12.43;;;11.43;;
15878;SDS011;61999;51.514;14.614;2023-08-20T01:24:16;13.40;;;12.20;;
15878;SDS011;61999;51.514;14.614;2023-08-20T01:27:10;12.23;;;11.33;;
15878;SDS011;61999;51.514;14.614;2023-08-20T01:30:08;13.10;;;12.00;;
15878;SDS011;61999;51.514;14.614;2023-08-20T01:32:48;12.43;;;11.33;;
15878;SDS011;61999;51.514;14.614;2023-08-20T01:35:23;12.63;;;11.63;;
15878;SDS011;61999;51.514;14.614;2023-08-20T01:37:52;13.03;;;12.03;;
15878;SDS011;61999;51.514;14.614;2023-08-20T01:40:20;13.17;;;11.97;;
15878;SDS011;61999;51.514;14.614;2023-08-20T01:42:48;11.73;;;10.83;;
15878;SDS011;61999;51.514;14.614;2023-08-20T01:45:18;12.53;;;11.53;;
15878;SDS011;61999;51.514;14.614;2023-08-20T01:47:47;11.67;;;10.83;;
15878;SDS011;61999;51.514;14.614;2023-08-20T01:50:16;13.30;;;12.17;;
15878;SDS011;61999;51.514;14.614;2023-08-20T01:52:44;12.90;;;11.90;;
15878;SDS011;61999;51.514;14.614;2023-08-20T01:55:12;12.73;;;11.53;;
15878;SDS011;61999;51.514;14.614;2023-08-20T01:57:43;12.00;;;11.00;;
15878;SDS011;61999;51.514;14.614;2023-08-20T02:00:12;12.53;;;11.53;;
15878;SDS011;61999;51.514;14.614;2023-08-20T02:02:42;12.03;;;11.13;;
15878;SDS011;61999;51.514;14.614;2023-08-20T02:05:10;11.83;;;10.93;;
15878;SDS011;61999;51.514;14.614;2023-08-20T02:07:38;12.00;;;11.00;;
15878;SDS011;61999;51.514;14.614;2023-08-20T02:10:07;12.67;;;11.67;;
15878;SDS011;61999;51.514;14.614;2023-08-20T02:12:38;11.97;;;11.00;;
15878;SDS011;61999;51.514;14.614;2023-08-20T02:15:07;11.47;;;10.57;;
15878;SDS011;61999;51.514;14.614;2023-08-20T02:17:37;12.93;;;11.93;;
15878;SDS011;61999;51.514;14.614;2023-08-20T02:20:07;13.17;;;12.00;;
15878;SDS011;61999;51.514;14.614;2023-08-20T02:22:37;13.07;;;11.93;;
15878;SDS011;61999;51.514;14.614;2023-08-20T02:25:05;12.20;;;11.23;;
15878;SDS011;61999;51.514;14.614;2023-08-20T02:27:34;12.80;;;11.80;;
15878;SDS011;61999;51.514;14.614;2023-08-20T02:30:02;11.87;;;10.90;;
15878;SDS011;61999;51.514;14.614;2023-08-20T02:32:31;12.57;;;11.63;;
15878;SDS011;61999;51.514;14.614;2023-08-20T02:35:00;11.80;;;10.93;;
15878;SDS011;61999;51.514;14.614;2023-08-20T02:37:32;12.40;;;11.40;;
15878;SDS011;61999;51.514;14.614;2023-08-20T02:40:01;11.60;;;10.80;;
15878;SDS011;61999;51.514;14.614;2023-08-20T02:42:31;12.47;;;11.37;;
15878;SDS011;61999;51.514;14.614;2023-08-20T02:44:59;11.93;;;10.93;;
15878;SDS011;61999;51.514;14.614;2023-08-20T02:47:27;13.30;;;12.30;;
15878;SDS011;61999;51.514;14.614;2023-08-20T02:49:55;12.60;;;11.63;;
15878;SDS011;61999;51.514;14.614;2023-08-20T02:52:24;11.77;;;10.87;;
15878;SDS011;61999;51.514;14.614;2023-08-20T02:54:54;12.27;;;11.37;;
15878;SDS011;61999;51.514;14.614;2023-08-20T02:57:22;11.63;;;10.73;;
15878;SDS011;61999;51.514;14.614;2023-08-20T02:59:50;13.30;;;12.23;;
15878;SDS011;61999;51.514;14.614;2023-08-20T03:02:19;12.90;;;11.73;;
15878;SDS011;61999;51.514;14.614;2023-08-20T03:04:47;12.60;;;11.60;;
15878;SDS011;61999;51.514;14.614;2023-08-20T03:07:15;13.97;;;12.80;;
15878;SDS011;61999;51.514;14.614;2023-08-20T03:09:43;13.23;;;12.23;;
15878;SDS011;61999;51.514;14.614;2023-08-20T03:12:14;13.27;;;12.10;;
15878;SDS011;61999;51.514;14.614;2023-08-20T03:14:42;12.87;;;11.87;;
15878;SDS011;61999;51.514;14.614;2023-08-20T03:17:10;11.40;;;10.60;;
15878;SDS011;61999;51.514;14.614;2023-08-20T03:19:47;12.93;;;11.87;;
15878;SDS011;61999;51.514;14.614;2023-08-20T03:22:25;12.37;;;11.37;;
15878;SDS011;61999;51.514;14.614;2023-08-20T03:24:54;13.10;;;12.00;;
15878;SDS011;61999;51.514;14.614;2023-08-20T03:27:24;12.67;;;11.70;;
15878;SDS011;61999;51.514;14.614;2023-08-20T03:29:52;11.60;;;10.70;;
15878;SDS011;61999;51.514;14.614;2023-08-20T03:32:20;12.53;;;11.53;;
15878;SDS011;61999;51.514;14.614;2023-08-20T03:34:49;13.07;;;12.07;;
15878;SDS011;61999;51.514;14.614;2023-08-20T03:37:19;13.43;;;12.33;;
15878;SDS011;61999;51.514;14.614;2023-08-20T03:39:48;13.37;;;12.27;;
15878;SDS011;61999;51.514;14.614;2023-08-20T03:42:16;13.70;;;12.60;;
15878;SDS011;61999;51.514;14.614;2023-08-20T03:44:46;12.50;;;11.60;;
15878;SDS011;61999;51.514;14.614;2023-08-20T03:47:14;13.07;;;12.07;;
15878;SDS011;61999;51.514;14.614;2023-08-20T03:49:46;12.67;;;11.67;;
15878;SDS011;61999;51.514;14.614;2023-08-20T03:52:15;12.40;;;11.40;;
15878;SDS011;61999;51.514;14.614;2023-08-20T03:54:43;12.23;;;11.27;;
15878;SDS011;61999;51.514;14.614;2023-08-20T03:57:12;14.37;;;13.27;;
15878;SDS011;61999;51.514;14.614;2023-08-20T03:59:41;14.60;;;13.30;;
15878;SDS011;61999;51.514;14.614;2023-08-20T04:02:12;14.80;;;13.50;;
15878;SDS011;61999;51.514;14.614;2023-08-20T04:04:41;12.63;;;11.63;;
15878;SDS011;61999;51.514;14.614;2023-08-20T04:07:09;13.83;;;12.73;;
15878;SDS011;61999;51.514;14.614;2023-08-20T04:09:37;12.50;;;11.50;;
15878;SDS011;61999;51.514;14.614;2023-08-20T04:12:06;11.53;;;10.63;;
15878;SDS011;61999;51.514;14.614;2023-08-20T04:14:34;12.20;;;11.10;;
15878;SDS011;61999;51.514;14.614;2023-08-20T04:17:05;12.83;;;11.73;;
15878;SDS011;61999;51.514;14.614;2023-08-20T04:19:35;11.30;;;10.50;;
15878;SDS011;61999;51.514;14.614;2023-08-20T04:22:03;11.50;;;10.67;;
15878;SDS011;61999;51.514;14.614;2023-08-20T04:24:31;13.03;;;12.03;;
15878;SDS011;61999;51.514;14.614;2023-08-20T04:27:00;11.83;;;10.93;;
15878;SDS011;61999;51.514;14.614;2023-08-20T04:29:28;12.20;;;11.10;;
15878;SDS011;61999;51.514;14.614;2023-08-20T04:31:56;11.90;;;11.00;;
15878;SDS011;61999;51.514;14.614;2023-08-20T04:34:24;12.67;;;11.67;;
15878;SDS011;61999;51.514;14.614;2023-08-20T04:36:56;12.30;;;11.30;;
15878;SDS011;61999;51.514;14.614;2023-08-20T04:39:24;12.07;;;11.17;;
15878;SDS011;61999;51.514;14.614;2023-08-20T04:41:52;12.00;;;11.10;;
15878;SDS011;61999;51.514;14.614;2023-08-20T04:44:23;12.43;;;11.43;;
15878;SDS011;61999;51.514;14.614;2023-08-20T04:46:51;12.63;;;11.63;;
15878;SDS011;61999;51.514;14.614;2023-08-20T04:49:19;12.87;;;11.73;;
15878;SDS011;61999;51.514;14.614;2023-08-20T04:51:47;13.97;;;12.20;;
15878;SDS011;61999;51.514;14.614;2023-08-20T04:54:17;12.83;;;11.83;;
15878;SDS011;61999;51.514;14.614;2023-08-20T04:56:45;12.83;;;11.77;;
15878;SDS011;61999;51.514;14.614;2023-08-20T04:59:13;12.87;;;11.90;;
15878;SDS011;61999;51.514;14.614;2023-08-20T05:01:41;12.90;;;11.90;;
15878;SDS011;61999;51.514;14.614;2023-08-20T05:04:09;12.07;;;11.07;;
15878;SDS011;61999;51.514;14.614;2023-08-20T05:06:38;12.33;;;11.33;;
15878;SDS011;61999;51.514;14.614;2023-08-20T05:09:06;12.30;;;11.27;;
15878;SDS011;61999;51.514;14.614;2023-08-20T05:11:37;13.40;;;12.27;;
15878;SDS011;61999;51.514;14.614;2023-08-20T05:14:05;14.00;;;12.83;;
15878;SDS011;61999;51.514;14.614;2023-08-20T05:16:33;14.90;;;13.70;;
15878;SDS011;61999;51.514;14.614;2023-08-20T05:19:01;14.53;;;13.33;;
15878;SDS011;61999;51.514;14.614;2023-08-20T05:21:29;14.30;;;13.27;;
15878;SDS011;61999;51.514;14.614;2023-08-20T05:23:57;13.63;;;12.50;;
15878;SDS011;61999;51.514;14.614;2023-08-20T05:26:26;11.97;;;11.03;;
15878;SDS011;61999;51.514;14.614;2023-08-20T05:28:55;12.97;;;11.80;;
15878;SDS011;61999;51.514;14.614;2023-08-20T05:31:23;13.47;;;12.37;;
15878;SDS011;61999;51.514;14.614;2023-08-20T05:33:51;13.17;;;12.13;;
15878;SDS011;61999;51.514;14.614;2023-08-20T05:36:19;13.83;;;12.73;;
15878;SDS011;61999;51.514;14.614;2023-08-20T05:38:47;13.63;;;12.53;;
15878;SDS011;61999;51.514;14.614;2023-08-20T05:41:15;13.13;;;12.03;;
15878;SDS011;61999;51.514;14.614;2023-08-20T05:43:43;14.73;;;13.53;;
15878;SDS011;61999;51.514;14.614;2023-08-20T05:46:13;14.63;;;13.43;;
15878;SDS011;61999;51.514;14.614;2023-08-20T05:48:41;13.50;;;12.40;;
15878;SDS011;61999;51.514;14.614;2023-08-20T05:51:09;13.63;;;12.43;;
15878;SDS011;61999;51.514;14.614;2023-08-20T05:53:37;13.20;;;12.00;;
15878;SDS011;61999;51.514;14.614;2023-08-20T05:56:05;13.20;;;12.20;;
15878;SDS011;61999;51.514;14.614;2023-08-20T05:58:33;14.57;;;13.37;;
15878;SDS011;61999;51.514;14.614;2023-08-20T06:01:01;12.60;;;11.60;;
15878;SDS011;61999;51.514;14.614;2023-08-20T06:03:31;13.47;;;12.37;;
15878;SDS011;61999;51.514;14.614;2023-08-20T06:05:59;15.33;;;14.03;;
15878;SDS011;61999;51.514;14.614;2023-08-20T06:08:28;15.17;;;13.93;;
15878;SDS011;61999;51.514;14.614;2023-08-20T06:10:56;14.53;;;13.27;;
15878;SDS011;61999;51.514;14.614;2023-08-20T06:13:25;13.47;;;12.37;;
15878;SDS011;61999;51.514;14.614;2023-08-20T06:15:53;12.93;;;11.93;;
15878;SDS011;61999;51.514;14.614;2023-08-20T06:18:21;13.10;;;12.10;;
15878;SDS011;61999;51.514;14.614;2023-08-20T06:20:50;13.73;;;12.40;;
15878;SDS011;61999;51.514;14.614;2023-08-20T06:23:18;15.47;;;14.20;;
15878;SDS011;61999;51.514;14.614;2023-08-20T06:25:52;15.93;;;14.53;;
15878;SDS011;61999;51.514;14.614;2023-08-20T06:28:21;17.10;;;15.70;;
15878;SDS011;61999;51.514;14.614;2023-08-20T06:30:49;17.17;;;15.77;;
15878;SDS011;61999;51.514;14.614;2023-08-20T06:33:17;15.53;;;14.23;;
15878;SDS011;61999;51.514;14.614;2023-08-20T06:35:45;17.63;;;16.13;;
15878;SDS011;61999;51.514;14.614;2023-08-20T06:38:14;14.63;;;13.43;;
15878;SDS011;61999;51.514;14.614;2023-08-20T06:40:42;15.53;;;14.23;;
15878;SDS011;61999;51.514;14.614;2023-08-20T06:43:10;15.73;;;14.50;;
15878;SDS011;61999;51.514;14.614;2023-08-20T06:45:38;14.77;;;13.50;;
15878;SDS011;61999;51.514;14.614;2023-08-20T06:48:06;16.43;;;15.13;;
15878;SDS011;61999;51.514;14.614;2023-08-20T06:50:35;16.47;;;15.17;;
15878;SDS011;61999;51.514;14.614;2023-08-20T06:53:03;17.67;;;16.17;;
15878;SDS011;61999;51.514;14.614;2023-08-20T06:55:33;17.53;;;16.13;;
15878;SDS011;61999;51.514;14.614;2023-08-20T06:58:02;18.07;;;16.47;;
15878;SDS011;61999;51.514;14.614;2023-08-20T07:00:31;13.93;;;12.83;;
15878;SDS011;61999;51.514;14.614;2023-08-20T07:02:59;14.37;;;13.17;;
15878;SDS011;61999;51.514;14.614;2023-08-20T07:05:27;15.50;;;14.10;;
15878;SDS011;61999;51.514;14.614;2023-08-20T07:07:55;16.57;;;15.27;;
15878;SDS011;61999;51.514;14.614;2023-08-20T07:10:23;13.80;;;12.60;;
15878;SDS011;61999;51.514;14.614;2023-08-20T07:12:53;14.17;;;13.07;;
15878;SDS011;61999;51.514;14.614;2023-08-20T07:15:21;15.90;;;14.50;;
15878;SDS011;61999;51.514;14.614;2023-08-20T07:17:49;15.33;;;14.00;;
15878;SDS011;61999;51.514;14.614;2023-08-20T07:20:17;13.00;;;12.00;;
15878;SDS011;61999;51.514;14.614;2023-08-20T07:22:45;12.67;;;11.63;;
15878;SDS011;61999;51.514;14.614;2023-08-20T07:25:13;15.07;;;13.83;;
15878;SDS011;61999;51.514;14.614;2023-08-20T07:27:41;13.57;;;12.47;;
15878;SDS011;61999;51.514;14.614;2023-08-20T07:30:12;12.60;;;11.60;;
15878;SDS011;61999;51.514;14.614;2023-08-20T07:32:40;13.50;;;12.30;;
15878;SDS011;61999;51.514;14.614;2023-08-20T07:35:08;13.10;;;12.13;;
15878;SDS011;61999;51.514;14.614;2023-08-20T07:37:37;13.67;;;12.57;;
15878;SDS011;61999;51.514;14.614;2023-08-20T07:40:05;13.83;;;12.83;;
15878;SDS011;61999;51.514;14.614;2023-08-20T07:42:35;12.70;;;11.70;;
15878;SDS011;61999;51.514;14.614;2023-08-20T07:45:04;12.50;;;11.40;;
15878;SDS011;61999;51.514;14.614;2023-08-20T07:47:35;11.60;;;10.67;;
15878;SDS011;61999;51.514;14.614;2023-08-20T07:50:03;13.10;;;12.00;;
15878;SDS011;61999;51.514;14.614;2023-08-20T07:52:33;12.37;;;11.37;;
15878;SDS011;61999;51.514;14.614;2023-08-20T07:55:01;13.10;;;12.00;;
15878;SDS011;61999;51.514;14.614;2023-08-20T07:57:30;12.87;;;11.67;;
15878;SDS011;61999;51.514;14.614;2023-08-20T07:59:58;12.20;;;11.30;;
15878;SDS011;61999;51.514;14.614;2023-08-20T08:02:26;11.97;;;10.97;;
15878;SDS011;61999;51.514;14.614;2023-08-20T08:04:55;12.80;;;11.67;;
15878;SDS011;61999;51.514;14.614;2023-08-20T08:07:23;11.53;;;10.63;;
15878;SDS011;61999;51.514;14.614;2023-08-20T08:09:51;13.43;;;12.23;;
15878;SDS011;61999;51.514;14.614;2023-08-20T08:12:19;12.30;;;11.40;;
15878;SDS011;61999;51.514;14.614;2023-08-20T08:14:48;12.07;;;11.17;;
15878;SDS011;61999;51.514;14.614;2023-08-20T08:17:16;11.47;;;10.47;;
15878;SDS011;61999;51.514;14.614;2023-08-20T08:19:44;11.63;;;10.63;;
15878;SDS011;61999;51.514;14.614;2023-08-20T08:22:13;11.63;;;10.67;;
15878;SDS011;61999;51.514;14.614;2023-08-20T08:24:41;11.27;;;10.27;;
15878;SDS011;61999;51.514;14.614;2023-08-20T08:27:09;11.07;;;10.27;;
15878;SDS011;61999;51.514;14.614;2023-08-20T08:29:38;11.60;;;10.70;;
15878;SDS011;61999;51.514;14.614;2023-08-20T08:32:06;10.93;;;10.00;;
15878;SDS011;61999;51.514;14.614;2023-08-20T08:34:34;10.77;;;9.87;;
15878;SDS011;61999;51.514;14.614;2023-08-20T08:37:02;10.53;;;9.63;;
15878;SDS011;61999;51.514;14.614;2023-08-20T08:39:31;10.60;;;9.80;;
15878;SDS011;61999;51.514;14.614;2023-08-20T08:42:00;10.47;;;9.60;;
15878;SDS011;61999;51.514;14.614;2023-08-20T08:44:31;10.20;;;9.40;;
15878;SDS011;61999;51.514;14.614;2023-08-20T08:46:59;10.00;;;9.20;;
15878;SDS011;61999;51.514;14.614;2023-08-20T08:49:29;10.93;;;9.93;;
15878;SDS011;61999;51.514;14.614;2023-08-20T08:52:00;11.63;;;10.73;;
15878;SDS011;61999;51.514;14.614;2023-08-20T08:54:33;12.83;;;11.73;;
15878;SDS011;61999;51.514;14.614;2023-08-20T08:57:03;9.90;;;9.10;;
15878;SDS011;61999;51.514;14.614;2023-08-20T08:59:32;10.63;;;9.73;;
15878;SDS011;61999;51.514;14.614;2023-08-20T09:02:00;11.00;;;10.20;;
15878;SDS011;61999;51.514;14.614;2023-08-20T09:04:28;10.77;;;9.77;;
15878;SDS011;61999;51.514;14.614;2023-08-20T09:06:59;10.57;;;9.57;;
15878;SDS011;61999;51.514;14.614;2023-08-20T09:09:28;10.43;;;9.53;;
15878;SDS011;61999;51.514;14.614;2023-08-20T09:11:58;11.93;;;11.00;;
15878;SDS011;61999;51.514;14.614;2023-08-20T09:14:27;12.27;;;11.27;;
15878;SDS011;61999;51.514;14.614;2023-08-20T09:16:57;9.83;;;9.13;;
15878;SDS011;61999;51.514;14.614;2023-08-20T09:19:27;10.17;;;9.37;;
15878;SDS011;61999;51.514;14.614;2023-08-20T09:21:58;11.20;;;10.17;;
15878;SDS011;61999;51.514;14.614;2023-08-20T09:24:31;10.87;;;9.83;;
15878;SDS011;61999;51.514;14.614;2023-08-20T09:27:04;10.07;;;9.17;;
15878;SDS011;61999;51.514;14.614;2023-08-20T09:29:32;10.40;;;9.60;;
15878;SDS011;61999;51.514;14.614;2023-08-20T09:32:13;9.67;;;8.87;;
15878;SDS011;61999;51.514;14.614;2023-08-20T09:34:42;10.30;;;9.60;;
15878;SDS011;61999;51.514;14.614;2023-08-20T09:37:11;10.63;;;9.83;;
15878;SDS011;61999;51.514;14.614;2023-08-20T09:39:41;9.20;;;8.53;;
15878;SDS011;61999;51.514;14.614;2023-08-20T09:42:11;10.13;;;9.33;;
15878;SDS011;61999;51.514;14.614;2023-08-20T09:44:40;9.00;;;8.30;;
15878;SDS011;61999;51.514;14.614;2023-08-20T09:47:11;9.57;;;8.77;;
15878;SDS011;61999;51.514;14.614;2023-08-20T09:49:41;9.20;;;8.50;;
15878;SDS011;61999;51.514;14.614;2023-08-20T09:52:12;10.33;;;9.43;;
15878;SDS011;61999;51.514;14.614;2023-08-20T09:54:50;10.10;;;9.30;;
15878;SDS011;61999;51.514;14.614;2023-08-20T09:57:32;8.97;;;8.27;;
15878;SDS011;61999;51.514;14.614;2023-08-20T10:00:03;10.23;;;9.33;;
15878;SDS011;61999;51.514;14.614;2023-08-20T10:02:36;9.40;;;8.50;;
15878;SDS011;61999;51.514;14.614;2023-08-20T10:05:06;9.33;;;8.57;;
15878;SDS011;61999;51.514;14.614;2023-08-20T10:07:35;9.27;;;8.47;;
15878;SDS011;61999;51.514;14.614;2023-08-20T10:10:05;9.10;;;8.40;;
15878;SDS011;61999;51.514;14.614;2023-08-20T10:12:36;10.43;;;9.47;;
15878;SDS011;61999;51.514;14.614;2023-08-20T10:15:07;10.10;;;9.23;;
15878;SDS011;61999;51.514;14.614;2023-08-20T10:17:37;10.47;;;9.67;;
15878;SDS011;61999;51.514;14.614;2023-08-20T10:20:08;10.47;;;9.43;;
15878;SDS011;61999;51.514;14.614;2023-08-20T10:22:40;10.27;;;9.37;;
15878;SDS011;61999;51.514;14.614;2023-08-20T10:25:10;9.80;;;9.10;;
15878;SDS011;61999;51.514;14.614;2023-08-20T10:27:50;11.20;;;10.33;;
15878;SDS011;61999;51.514;14.614;2023-08-20T10:30:24;10.10;;;9.40;;
15878;SDS011;61999;51.514;14.614;2023-08-20T10:32:53;9.53;;;8.57;;
15878;SDS011;61999;51.514;14.614;2023-08-20T10:35:25;9.47;;;8.63;;
15878;SDS011;61999;51.514;14.614;2023-08-20T10:38:02;10.10;;;9.20;;
15878;SDS011;61999;51.514;14.614;2023-08-20T10:40:48;10.03;;;9.20;;
15878;SDS011;61999;51.514;14.614;2023-08-20T10:43:28;8.57;;;7.90;;
15878;SDS011;61999;51.514;14.614;2023-08-20T10:46:13;7.83;;;7.23;;
15878;SDS011;61999;51.514;14.614;2023-08-20T10:48:46;8.57;;;7.90;;
15878;SDS011;61999;51.514;14.614;2023-08-20T10:51:16;8.60;;;7.90;;
15878;SDS011;61999;51.514;14.614;2023-08-20T10:54:01;8.97;;;8.27;;
15878;SDS011;61999;51.514;14.614;2023-08-20T10:56:39;8.90;;;8.10;;
15878;SDS011;61999;51.514;14.614;2023-08-20T10:59:12;9.37;;;8.50;;
15878;SDS011;61999;51.514;14.614;2023-08-20T11:01:43;8.77;;;8.07;;
15878;SDS011;61999;51.514;14.614;2023-08-20T11:04:13;7.70;;;7.10;;
15878;SDS011;61999;51.514;14.614;2023-08-20T11:06:42;9.57;;;7.57;;
15878;SDS011;61999;51.514;14.614;2023-08-20T11:09:11;7.40;;;6.80;;
15878;SDS011;61999;51.514;14.614;2023-08-20T11:11:40;8.00;;;7.20;;
15878;SDS011;61999;51.514;14.614;2023-08-20T11:14:11;9.27;;;8.47;;
15878;SDS011;61999;51.514;14.614;2023-08-20T11:16:42;8.70;;;7.90;;
15878;SDS011;61999;51.514;14.614;2023-08-20T11:19:11;7.90;;;7.07;;
15878;SDS011;61999;51.514;14.614;2023-08-20T11:21:41;6.93;;;6.38;;
15878;SDS011;61999;51.514;14.614;2023-08-20T11:24:10;8.05;;;7.25;;
15878;SDS011;61999;51.514;14.614;2023-08-20T11:26:39;6.97;;;6.47;;
15878;SDS011;61999;51.514;14.614;2023-08-20T11:29:09;7.57;;;6.97;;
15878;SDS011;61999;51.514;14.614;2023-08-20T11:31:40;8.20;;;7.60;;
15878;SDS011;61999;51.514;14.614;2023-08-20T11:34:09;8.48;;;7.82;;
15878;SDS011;61999;51.514;14.614;2023-08-20T11:36:39;8.90;;;8.30;;
15878;SDS011;61999;51.514;14.614;2023-08-20T11:39:07;7.20;;;6.80;;
15878;SDS011;61999;51.514;14.614;2023-08-20T11:41:36;8.32;;;7.72;;
15878;SDS011;61999;51.514;14.614;2023-08-20T11:44:08;7.35;;;6.65;;
15878;SDS011;61999;51.514;14.614;2023-08-20T11:46:43;6.25;;;5.88;;
15878;SDS011;61999;51.514;14.614;2023-08-20T11:49:12;6.88;;;6.47;;
15878;SDS011;61999;51.514;14.614;2023-08-20T11:51:41;6.82;;;6.43;;
15878;SDS011;61999;51.514;14.614;2023-08-20T11:54:13;7.78;;;7.28;;
15878;SDS011;61999;51.514;14.614;2023-08-20T11:56:43;8.85;;;8.25;;
15878;SDS011;61999;51.514;14.614;2023-08-20T11:59:12;7.25;;;6.82;;
15878;SDS011;61999;51.514;14.614;2023-08-20T12:01:43;7.30;;;6.68;;
15878;SDS011;61999;51.514;14.614;2023-08-20T12:04:18;6.90;;;6.53;;
15878;SDS011;61999;51.514;14.614;2023-08-20T12:07:01;6.15;;;5.85;;
15878;SDS011;61999;51.514;14.614;2023-08-20T12:09:31;6.30;;;5.93;;
15878;SDS011;61999;51.514;14.614;2023-08-20T12:12:00;6.88;;;6.47;;
15878;SDS011;61999;51.514;14.614;2023-08-20T12:14:29;6.75;;;6.07;;
15878;SDS011;61999;51.514;14.614;2023-08-20T12:16:58;6.38;;;6.03;;
15878;SDS011;61999;51.514;14.614;2023-08-20T12:19:26;6.60;;;6.20;;
15878;SDS011;61999;51.514;14.614;2023-08-20T12:21:56;5.93;;;5.63;;
15878;SDS011;61999;51.514;14.614;2023-08-20T12:24:38;6.20;;;5.88;;
15878;SDS011;61999;51.514;14.614;2023-08-20T12:27:07;5.72;;;5.43;;
15878;SDS011;61999;51.514;14.614;2023-08-20T12:29:35;6.10;;;5.70;;
15878;SDS011;61999;51.514;14.614;2023-08-20T12:32:05;6.03;;;5.63;;
15878;SDS011;61999;51.514;14.614;2023-08-20T12:34:34;5.55;;;5.25;;
15878;SDS011;61999;51.514;14.614;2023-08-20T12:37:02;5.30;;;5.00;;
15878;SDS011;61999;51.514;14.614;2023-08-20T12:39:30;5.82;;;5.53;;
15878;SDS011;61999;51.514;14.614;2023-08-20T12:41:58;5.13;;;4.82;;
15878;SDS011;61999;51.514;14.614;2023-08-20T12:44:26;5.40;;;5.00;;
15878;SDS011;61999;51.514;14.614;2023-08-20T12:46:56;5.55;;;5.18;;
15878;SDS011;61999;51.514;14.614;2023-08-20T12:49:25;5.35;;;4.95;;
15878;SDS011;61999;51.514;14.614;2023-08-20T12:51:54;4.38;;;4.10;;
15878;SDS011;61999;51.514;14.614;2023-08-20T12:54:23;5.53;;;5.00;;
15878;SDS011;61999;51.514;14.614;2023-08-20T12:56:51;4.75;;;4.45;;
15878;SDS011;61999;51.514;14.614;2023-08-20T12:59:21;5.10;;;4.80;;
15878;SDS011;61999;51.514;14.614;2023-08-20T13:01:51;4.53;;;4.22;;
15878;SDS011;61999;51.514;14.614;2023-08-20T13:04:19;5.05;;;4.63;;
15878;SDS011;61999;51.514;14.614;2023-08-20T13:06:50;4.80;;;4.50;;
15878;SDS011;61999;51.514;14.614;2023-08-20T13:09:18;5.00;;;4.70;;
15878;SDS011;61999;51.514;14.614;2023-08-20T13:11:47;5.85;;;5.55;;
15878;SDS011;61999;51.514;14.614;2023-08-20T13:14:20;5.40;;;5.10;;
15878;SDS011;61999;51.514;14.614;2023-08-20T13:16:50;5.32;;;5.05;;
15878;SDS011;61999;51.514;14.614;2023-08-20T13:19:18;5.70;;;5.40;;
15878;SDS011;61999;51.514;14.614;2023-08-20T13:21:46;6.90;;;6.50;;
15878;SDS011;61999;51.514;14.614;2023-08-20T13:24:16;5.78;;;5.38;;
15878;SDS011;61999;51.514;14.614;2023-08-20T13:26:44;6.38;;;5.97;;
15878;SDS011;61999;51.514;14.614;2023-08-20T13:29:12;7.63;;;7.13;;
15878;SDS011;61999;51.514;14.614;2023-08-20T13:31:40;7.20;;;6.80;;
15878;SDS011;61999;51.514;14.614;2023-08-20T13:34:08;6.47;;;6.05;;
15878;SDS011;61999;51.514;14.614;2023-08-20T13:36:36;7.00;;;6.43;;
15878;SDS011;61999;51.514;14.614;2023-08-20T13:39:04;7.93;;;7.40;;
15878;SDS011;61999;51.514;14.614;2023-08-20T13:41:34;7.30;;;6.80;;
15878;SDS011;61999;51.514;14.614;2023-08-20T13:44:02;6.15;;;5.75;;
15878;SDS011;61999;51.514;14.614;2023-08-20T13:46:30;7.47;;;7.05;;
15878;SDS011;61999;51.514;14.614;2023-08-20T13:48:58;7.20;;;6.80;;
15878;SDS011;61999;51.514;14.614;2023-08-20T13:51:27;7.55;;;6.95;;
15878;SDS011;61999;51.514;14.614;2023-08-20T13:53:55;7.80;;;7.30;;
15878;SDS011;61999;51.514;14.614;2023-08-20T13:56:23;7.22;;;6.82;;
15878;SDS011;61999;51.514;14.614;2023-08-20T13:58:53;6.63;;;6.22;;
15878;SDS011;61999;51.514;14.614;2023-08-20T14:01:21;5.93;;;5.57;;
15878;SDS011;61999;51.514;14.614;2023-08-20T14:03:50;6.30;;;6.00;;
15878;SDS011;61999;51.514;14.614;2023-08-20T14:06:18;6.10;;;5.70;;
15878;SDS011;61999;51.514;14.614;2023-08-20T14:08:46;6.13;;;5.65;;
15878;SDS011;61999;51.514;14.614;2023-08-20T14:11:14;5.53;;;5.22;;
15878;SDS011;61999;51.514;14.614;2023-08-20T14:13:42;5.90;;;5.60;;
15878;SDS011;61999;51.514;14.614;2023-08-20T14:16:11;5.60;;;5.30;;
15878;SDS011;61999;51.514;14.614;2023-08-20T14:18:40;6.30;;;5.90;;
15878;SDS011;61999;51.514;14.614;2023-08-20T14:21:08;5.75;;;5.45;;
15878;SDS011;61999;51.514;14.614;2023-08-20T14:23:36;5.65;;;5.25;;
15878;SDS011;61999;51.514;14.614;2023-08-20T14:26:05;5.53;;;5.22;;
15878;SDS011;61999;51.514;14.614;2023-08-20T14:28:34;5.72;;;5.22;;
15878;SDS011;61999;51.514;14.614;2023-08-20T14:31:02;6.68;;;6.18;;
15878;SDS011;61999;51.514;14.614;2023-08-20T14:33:32;5.93;;;5.63;;